sensor_id;sensor_type;location;lat;lon;timestamp;P1;durP1;ratioP1;P2;durP2;ratioP2
10801;SDS011;5453;50.852;7.102;2023-04-25T00:00:52;4.18;;;1.95;;
10801;SDS011;5453;50.852;7.102;2023-04-25T00:03:24;4.25;;;1.85;;
10801;SDS011;5453;50.852;7.102;2023-04-25T00:05:56;4.00;;;2.10;;
10801;SDS011;5453;50.852;7.102;2023-04-25T00:08:32;3.50;;;1.92;;
10801;SDS011;5453;50.852;7.102;2023-04-25T00:11:05;3.33;;;1.90;;
10801;SDS011;5453;50.852;7.102;2023-04-25T00:13:38;3.50;;;2.25;;
10801;SDS011;5453;50.852;7.102;2023-04-25T00:16:11;5.10;;;2.25;;
10801;SDS011;5453;50.852;7.102;2023-04-25T00:18:45;5.47;;;2.72;;
10801;SDS011;5453;50.852;7.102;2023-04-25T00:21:21;4.53;;;2.28;;
10801;SDS011;5453;50.852;7.102;2023-04-25T00:23:54;4.97;;;2.22;;
10801;SDS011;5453;50.852;7.102;2023-04-25T00:26:28;5.03;;;3.10;;
10801;SDS011;5453;50.852;7.102;2023-04-25T00:29:00;6.88;;;2.38;;
10801;SDS011;5453;50.852;7.102;2023-04-25T00:31:32;7.18;;;2.60;;
10801;SDS011;5453;50.852;7.102;2023-04-25T00:34:05;6.30;;;2.53;;
10801;SDS011;5453;50.852;7.102;2023-04-25T00:36:39;7.38;;;2.42;;
10801;SDS011;5453;50.852;7.102;2023-04-25T00:39:12;4.10;;;2.28;;
10801;SDS011;5453;50.852;7.102;2023-04-25T00:41:45;5.03;;;2.45;;
10801;SDS011;5453;50.852;7.102;2023-04-25T00:44:18;4.80;;;2.15;;
10801;SDS011;5453;50.852;7.102;2023-04-25T00:46:51;3.22;;;1.98;;
10801;SDS011;5453;50.852;7.102;2023-04-25T00:49:25;2.65;;;1.85;;
10801;SDS011;5453;50.852;7.102;2023-04-25T00:51:57;4.80;;;2.05;;
10801;SDS011;5453;50.852;7.102;2023-04-25T00:54:29;4.20;;;2.38;;
10801;SDS011;5453;50.852;7.102;2023-04-25T00:57:03;3.75;;;2.17;;
10801;SDS011;5453;50.852;7.102;2023-04-25T00:59:35;3.60;;;1.80;;
10801;SDS011;5453;50.852;7.102;2023-04-25T01:02:08;4.40;;;2.33;;
10801;SDS011;5453;50.852;7.102;2023-04-25T01:04:41;5.97;;;2.10;;
10801;SDS011;5453;50.852;7.102;2023-04-25T01:07:13;4.65;;;2.15;;
10801;SDS011;5453;50.852;7.102;2023-04-25T01:09:46;3.83;;;2.08;;
10801;SDS011;5453;50.852;7.102;2023-04-25T01:12:19;4.03;;;2.30;;
10801;SDS011;5453;50.852;7.102;2023-04-25T01:14:52;6.78;;;2.38;;
10801;SDS011;5453;50.852;7.102;2023-04-25T01:17:24;4.15;;;1.95;;
10801;SDS011;5453;50.852;7.102;2023-04-25T01:19:57;4.38;;;1.88;;
10801;SDS011;5453;50.852;7.102;2023-04-25T01:22:30;3.92;;;1.90;;
10801;SDS011;5453;50.852;7.102;2023-04-25T01:25:03;4.18;;;2.05;;
10801;SDS011;5453;50.852;7.102;2023-04-25T01:27:36;3.92;;;2.33;;
10801;SDS011;5453;50.852;7.102;2023-04-25T01:30:09;3.25;;;2.20;;
10801;SDS011;5453;50.852;7.102;2023-04-25T01:32:42;4.40;;;2.58;;
10801;SDS011;5453;50.852;7.102;2023-04-25T01:35:15;6.05;;;2.20;;
10801;SDS011;5453;50.852;7.102;2023-04-25T01:37:49;5.93;;;2.30;;
10801;SDS011;5453;50.852;7.102;2023-04-25T01:40:22;5.68;;;2.40;;
10801;SDS011;5453;50.852;7.102;2023-04-25T01:42:56;3.78;;;2.08;;
10801;SDS011;5453;50.852;7.102;2023-04-25T01:45:28;5.95;;;2.28;;
10801;SDS011;5453;50.852;7.102;2023-04-25T01:48:00;4.68;;;2.47;;
10801;SDS011;5453;50.852;7.102;2023-04-25T01:50:32;8.73;;;3.25;;
10801;SDS011;5453;50.852;7.102;2023-04-25T01:53:06;5.00;;;2.35;;
10801;SDS011;5453;50.852;7.102;2023-04-25T01:55:41;7.20;;;2.95;;
10801;SDS011;5453;50.852;7.102;2023-04-25T01:58:15;4.10;;;1.92;;
10801;SDS011;5453;50.852;7.102;2023-04-25T02:01:09;7.53;;;3.10;;
10801;SDS011;5453;50.852;7.102;2023-04-25T02:03:48;4.03;;;2.30;;
10801;SDS011;5453;50.852;7.102;2023-04-25T02:06:29;4.53;;;2.30;;
10801;SDS011;5453;50.852;7.102;2023-04-25T02:09:04;4.60;;;2.20;;
10801;SDS011;5453;50.852;7.102;2023-04-25T02:11:36;6.13;;;2.33;;
10801;SDS011;5453;50.852;7.102;2023-04-25T02:14:34;3.80;;;2.03;;
10801;SDS011;5453;50.852;7.102;2023-04-25T02:17:16;7.05;;;2.42;;
10801;SDS011;5453;50.852;7.102;2023-04-25T02:19:49;3.78;;;1.92;;
10801;SDS011;5453;50.852;7.102;2023-04-25T02:22:21;5.03;;;2.00;;
10801;SDS011;5453;50.852;7.102;2023-04-25T02:24:55;7.18;;;2.30;;
10801;SDS011;5453;50.852;7.102;2023-04-25T02:27:28;4.25;;;2.20;;
10801;SDS011;5453;50.852;7.102;2023-04-25T02:30:00;4.93;;;2.35;;
10801;SDS011;5453;50.852;7.102;2023-04-25T02:32:33;5.82;;;2.08;;
10801;SDS011;5453;50.852;7.102;2023-04-25T02:35:06;3.65;;;1.90;;
10801;SDS011;5453;50.852;7.102;2023-04-25T02:37:40;6.28;;;2.53;;
10801;SDS011;5453;50.852;7.102;2023-04-25T02:40:14;7.45;;;2.67;;
10801;SDS011;5453;50.852;7.102;2023-04-25T02:42:46;5.10;;;2.30;;
10801;SDS011;5453;50.852;7.102;2023-04-25T02:45:18;5.85;;;2.78;;
10801;SDS011;5453;50.852;7.102;2023-04-25T02:47:50;4.40;;;2.30;;
10801;SDS011;5453;50.852;7.102;2023-04-25T02:50:23;4.50;;;2.60;;
10801;SDS011;5453;50.852;7.102;2023-04-25T02:52:55;5.72;;;2.10;;
10801;SDS011;5453;50.852;7.102;2023-04-25T02:55:34;4.40;;;2.20;;
10801;SDS011;5453;50.852;7.102;2023-04-25T02:58:07;4.30;;;2.00;;
10801;SDS011;5453;50.852;7.102;2023-04-25T03:00:52;6.55;;;2.60;;
10801;SDS011;5453;50.852;7.102;2023-04-25T03:03:24;5.70;;;2.50;;
10801;SDS011;5453;50.852;7.102;2023-04-25T03:05:57;2.55;;;1.90;;
10801;SDS011;5453;50.852;7.102;2023-04-25T03:08:33;5.53;;;2.17;;
10801;SDS011;5453;50.852;7.102;2023-04-25T03:11:07;5.18;;;2.00;;
10801;SDS011;5453;50.852;7.102;2023-04-25T03:13:39;6.85;;;2.78;;
10801;SDS011;5453;50.852;7.102;2023-04-25T03:16:13;7.38;;;2.35;;
10801;SDS011;5453;50.852;7.102;2023-04-25T03:18:45;5.53;;;2.60;;
10801;SDS011;5453;50.852;7.102;2023-04-25T03:21:17;5.30;;;2.35;;
10801;SDS011;5453;50.852;7.102;2023-04-25T03:23:49;4.30;;;2.08;;
10801;SDS011;5453;50.852;7.102;2023-04-25T03:26:23;4.25;;;2.17;;
10801;SDS011;5453;50.852;7.102;2023-04-25T03:28:55;4.70;;;2.25;;
10801;SDS011;5453;50.852;7.102;2023-04-25T03:31:27;7.65;;;3.13;;
10801;SDS011;5453;50.852;7.102;2023-04-25T03:34:00;6.53;;;2.42;;
10801;SDS011;5453;50.852;7.102;2023-04-25T03:36:32;5.18;;;2.65;;
10801;SDS011;5453;50.852;7.102;2023-04-25T03:39:04;5.45;;;2.90;;
10801;SDS011;5453;50.852;7.102;2023-04-25T03:41:38;5.90;;;2.30;;
10801;SDS011;5453;50.852;7.102;2023-04-25T03:44:16;3.38;;;2.22;;
10801;SDS011;5453;50.852;7.102;2023-04-25T03:46:48;5.43;;;2.25;;
10801;SDS011;5453;50.852;7.102;2023-04-25T03:49:21;5.03;;;2.45;;
10801;SDS011;5453;50.852;7.102;2023-04-25T03:52:05;5.05;;;2.33;;
10801;SDS011;5453;50.852;7.102;2023-04-25T03:54:43;6.15;;;2.42;;
10801;SDS011;5453;50.852;7.102;2023-04-25T03:57:20;4.65;;;2.08;;
10801;SDS011;5453;50.852;7.102;2023-04-25T03:59:52;5.60;;;2.15;;
10801;SDS011;5453;50.852;7.102;2023-04-25T04:02:24;4.53;;;1.77;;
10801;SDS011;5453;50.852;7.102;2023-04-25T04:04:57;3.90;;;2.25;;
10801;SDS011;5453;50.852;7.102;2023-04-25T04:07:29;4.63;;;2.22;;
10801;SDS011;5453;50.852;7.102;2023-04-25T04:10:04;3.38;;;2.05;;
10801;SDS011;5453;50.852;7.102;2023-04-25T04:12:41;5.13;;;2.33;;
10801;SDS011;5453;50.852;7.102;2023-04-25T04:15:15;5.38;;;2.08;;
10801;SDS011;5453;50.852;7.102;2023-04-25T04:17:49;5.57;;;2.45;;
10801;SDS011;5453;50.852;7.102;2023-04-25T04:20:22;3.88;;;1.75;;
10801;SDS011;5453;50.852;7.102;2023-04-25T04:22:54;4.05;;;1.98;;
10801;SDS011;5453;50.852;7.102;2023-04-25T04:25:27;4.45;;;1.95;;
10801;SDS011;5453;50.852;7.102;2023-04-25T04:28:20;3.42;;;1.95;;
10801;SDS011;5453;50.852;7.102;2023-04-25T04:31:12;4.72;;;2.42;;
10801;SDS011;5453;50.852;7.102;2023-04-25T04:33:47;4.10;;;2.53;;
10801;SDS011;5453;50.852;7.102;2023-04-25T04:36:20;4.25;;;2.00;;
10801;SDS011;5453;50.852;7.102;2023-04-25T04:38:53;5.78;;;2.40;;
10801;SDS011;5453;50.852;7.102;2023-04-25T04:41:40;5.22;;;2.55;;
10801;SDS011;5453;50.852;7.102;2023-04-25T04:44:17;6.43;;;2.72;;
10801;SDS011;5453;50.852;7.102;2023-04-25T04:47:09;8.77;;;2.60;;
10801;SDS011;5453;50.852;7.102;2023-04-25T04:49:58;8.43;;;3.40;;
10801;SDS011;5453;50.852;7.102;2023-04-25T04:52:46;6.40;;;2.40;;
10801;SDS011;5453;50.852;7.102;2023-04-25T04:55:37;5.57;;;2.42;;
10801;SDS011;5453;50.852;7.102;2023-04-25T04:58:32;6.38;;;3.13;;
10801;SDS011;5453;50.852;7.102;2023-04-25T05:01:25;8.43;;;2.65;;
10801;SDS011;5453;50.852;7.102;2023-04-25T05:04:19;5.45;;;2.42;;
10801;SDS011;5453;50.852;7.102;2023-04-25T05:07:09;7.63;;;2.80;;
10801;SDS011;5453;50.852;7.102;2023-04-25T05:10:10;7.68;;;3.20;;
10801;SDS011;5453;50.852;7.102;2023-04-25T05:13:06;8.15;;;2.50;;
10801;SDS011;5453;50.852;7.102;2023-04-25T05:15:41;10.52;;;3.03;;
10801;SDS011;5453;50.852;7.102;2023-04-25T05:18:50;7.38;;;3.00;;
10801;SDS011;5453;50.852;7.102;2023-04-25T05:24:37;4.93;;;2.30;;
10801;SDS011;5453;50.852;7.102;2023-04-25T05:27:09;6.65;;;2.63;;
10801;SDS011;5453;50.852;7.102;2023-04-25T05:29:53;5.53;;;2.50;;
10801;SDS011;5453;50.852;7.102;2023-04-25T05:32:32;6.80;;;2.90;;
10801;SDS011;5453;50.852;7.102;2023-04-25T05:35:05;9.57;;;3.00;;
10801;SDS011;5453;50.852;7.102;2023-04-25T05:37:45;6.75;;;2.90;;
10801;SDS011;5453;50.852;7.102;2023-04-25T05:40:18;9.52;;;2.67;;
10801;SDS011;5453;50.852;7.102;2023-04-25T05:42:58;13.98;;;3.60;;
10801;SDS011;5453;50.852;7.102;2023-04-25T05:45:30;6.75;;;3.17;;
10801;SDS011;5453;50.852;7.102;2023-04-25T05:48:08;9.00;;;2.78;;
10801;SDS011;5453;50.852;7.102;2023-04-25T05:50:54;7.20;;;3.05;;
10801;SDS011;5453;50.852;7.102;2023-04-25T05:53:48;8.40;;;3.05;;
10801;SDS011;5453;50.852;7.102;2023-04-25T05:56:20;11.70;;;2.88;;
10801;SDS011;5453;50.852;7.102;2023-04-25T05:58:55;6.90;;;3.00;;
10801;SDS011;5453;50.852;7.102;2023-04-25T06:01:28;8.05;;;3.08;;
10801;SDS011;5453;50.852;7.102;2023-04-25T06:04:00;9.23;;;3.28;;
10801;SDS011;5453;50.852;7.102;2023-04-25T06:06:34;10.35;;;3.25;;
10801;SDS011;5453;50.852;7.102;2023-04-25T06:09:06;9.00;;;2.92;;
10801;SDS011;5453;50.852;7.102;2023-04-25T06:11:38;7.93;;;2.60;;
10801;SDS011;5453;50.852;7.102;2023-04-25T06:14:10;7.30;;;2.67;;
10801;SDS011;5453;50.852;7.102;2023-04-25T06:16:48;7.03;;;3.50;;
10801;SDS011;5453;50.852;7.102;2023-04-25T06:19:19;9.60;;;3.83;;
10801;SDS011;5453;50.852;7.102;2023-04-25T06:21:53;10.93;;;3.25;;
10801;SDS011;5453;50.852;7.102;2023-04-25T06:24:25;9.77;;;3.42;;
10801;SDS011;5453;50.852;7.102;2023-04-25T06:26:57;10.40;;;3.35;;
10801;SDS011;5453;50.852;7.102;2023-04-25T06:29:30;7.03;;;3.35;;
10801;SDS011;5453;50.852;7.102;2023-04-25T06:32:02;13.77;;;3.25;;
10801;SDS011;5453;50.852;7.102;2023-04-25T06:34:34;8.00;;;3.45;;
10801;SDS011;5453;50.852;7.102;2023-04-25T06:37:08;9.98;;;3.60;;
10801;SDS011;5453;50.852;7.102;2023-04-25T06:39:40;9.25;;;2.90;;
10801;SDS011;5453;50.852;7.102;2023-04-25T06:42:14;7.03;;;3.20;;
10801;SDS011;5453;50.852;7.102;2023-04-25T06:47:27;7.45;;;3.00;;
10801;SDS011;5453;50.852;7.102;2023-04-25T06:50:00;11.82;;;3.35;;
10801;SDS011;5453;50.852;7.102;2023-04-25T06:52:34;10.10;;;2.95;;
10801;SDS011;5453;50.852;7.102;2023-04-25T06:55:07;7.97;;;3.00;;
10801;SDS011;5453;50.852;7.102;2023-04-25T06:58:00;10.18;;;3.65;;
10801;SDS011;5453;50.852;7.102;2023-04-25T07:00:53;8.77;;;3.30;;
10801;SDS011;5453;50.852;7.102;2023-04-25T07:03:27;11.75;;;3.17;;
10801;SDS011;5453;50.852;7.102;2023-04-25T07:06:04;9.23;;;2.92;;
10801;SDS011;5453;50.852;7.102;2023-04-25T07:08:38;7.60;;;2.42;;
10801;SDS011;5453;50.852;7.102;2023-04-25T07:11:11;7.15;;;2.75;;
10801;SDS011;5453;50.852;7.102;2023-04-25T07:13:43;9.13;;;2.78;;
10801;SDS011;5453;50.852;7.102;2023-04-25T07:16:16;10.48;;;3.00;;
10801;SDS011;5453;50.852;7.102;2023-04-25T07:18:48;7.95;;;3.03;;
10801;SDS011;5453;50.852;7.102;2023-04-25T07:21:20;8.20;;;2.63;;
10801;SDS011;5453;50.852;7.102;2023-04-25T07:23:56;7.10;;;2.53;;
10801;SDS011;5453;50.852;7.102;2023-04-25T07:26:33;5.90;;;2.60;;
10801;SDS011;5453;50.852;7.102;2023-04-25T07:29:38;7.72;;;2.63;;
10801;SDS011;5453;50.852;7.102;2023-04-25T07:32:10;8.98;;;2.50;;
10801;SDS011;5453;50.852;7.102;2023-04-25T07:34:46;6.45;;;2.75;;
10801;SDS011;5453;50.852;7.102;2023-04-25T07:37:20;6.93;;;2.00;;
10801;SDS011;5453;50.852;7.102;2023-04-25T07:40:06;9.75;;;2.67;;
10801;SDS011;5453;50.852;7.102;2023-04-25T07:42:42;9.30;;;2.40;;
10801;SDS011;5453;50.852;7.102;2023-04-25T07:45:18;8.63;;;2.88;;
10801;SDS011;5453;50.852;7.102;2023-04-25T07:47:50;5.45;;;2.35;;
10801;SDS011;5453;50.852;7.102;2023-04-25T07:50:22;7.47;;;2.33;;
10801;SDS011;5453;50.852;7.102;2023-04-25T07:52:55;4.88;;;2.22;;
10801;SDS011;5453;50.852;7.102;2023-04-25T07:55:37;8.55;;;2.88;;
10801;SDS011;5453;50.852;7.102;2023-04-25T07:58:18;7.07;;;2.58;;
10801;SDS011;5453;50.852;7.102;2023-04-25T08:00:54;8.05;;;2.90;;
10801;SDS011;5453;50.852;7.102;2023-04-25T08:03:52;9.82;;;3.08;;
10801;SDS011;5453;50.852;7.102;2023-04-25T08:06:29;6.50;;;2.65;;
10801;SDS011;5453;50.852;7.102;2023-04-25T08:09:15;6.65;;;2.50;;
10801;SDS011;5453;50.852;7.102;2023-04-25T08:11:49;7.03;;;2.95;;
10801;SDS011;5453;50.852;7.102;2023-04-25T08:14:25;9.60;;;2.83;;
10801;SDS011;5453;50.852;7.102;2023-04-25T08:16:59;10.18;;;3.85;;
10801;SDS011;5453;50.852;7.102;2023-04-25T08:19:31;5.07;;;2.65;;
10801;SDS011;5453;50.852;7.102;2023-04-25T08:22:04;7.43;;;2.30;;
10801;SDS011;5453;50.852;7.102;2023-04-25T08:24:47;7.22;;;2.47;;
10801;SDS011;5453;50.852;7.102;2023-04-25T08:27:22;5.03;;;2.60;;
10801;SDS011;5453;50.852;7.102;2023-04-25T08:29:55;5.43;;;2.30;;
10801;SDS011;5453;50.852;7.102;2023-04-25T08:32:28;9.23;;;2.70;;
10801;SDS011;5453;50.852;7.102;2023-04-25T08:35:20;5.45;;;2.60;;
10801;SDS011;5453;50.852;7.102;2023-04-25T08:37:53;7.47;;;2.78;;
10801;SDS011;5453;50.852;7.102;2023-04-25T08:40:26;8.13;;;2.60;;
10801;SDS011;5453;50.852;7.102;2023-04-25T08:43:12;4.60;;;2.42;;
10801;SDS011;5453;50.852;7.102;2023-04-25T08:45:45;6.22;;;2.38;;
10801;SDS011;5453;50.852;7.102;2023-04-25T08:48:28;4.47;;;2.20;;
10801;SDS011;5453;50.852;7.102;2023-04-25T08:51:04;7.40;;;2.50;;
10801;SDS011;5453;50.852;7.102;2023-04-25T08:53:39;8.30;;;2.20;;
10801;SDS011;5453;50.852;7.102;2023-04-25T08:56:13;6.47;;;2.00;;
10801;SDS011;5453;50.852;7.102;2023-04-25T08:58:49;5.30;;;2.08;;
10801;SDS011;5453;50.852;7.102;2023-04-25T09:01:21;3.42;;;1.60;;
10801;SDS011;5453;50.852;7.102;2023-04-25T09:03:57;3.58;;;1.50;;
10801;SDS011;5453;50.852;7.102;2023-04-25T09:06:30;6.97;;;2.10;;
10801;SDS011;5453;50.852;7.102;2023-04-25T09:09:03;5.38;;;2.20;;
10801;SDS011;5453;50.852;7.102;2023-04-25T09:11:37;6.88;;;2.42;;
10801;SDS011;5453;50.852;7.102;2023-04-25T09:14:16;6.75;;;2.42;;
10801;SDS011;5453;50.852;7.102;2023-04-25T09:17:17;5.38;;;2.33;;
10801;SDS011;5453;50.852;7.102;2023-04-25T09:20:04;7.15;;;2.20;;
10801;SDS011;5453;50.852;7.102;2023-04-25T09:22:39;5.35;;;2.20;;
10801;SDS011;5453;50.852;7.102;2023-04-25T09:25:12;7.15;;;2.30;;
10801;SDS011;5453;50.852;7.102;2023-04-25T09:27:49;5.47;;;2.10;;
10801;SDS011;5453;50.852;7.102;2023-04-25T09:30:31;5.90;;;2.10;;
10801;SDS011;5453;50.852;7.102;2023-04-25T09:33:26;3.80;;;1.80;;
10801;SDS011;5453;50.852;7.102;2023-04-25T09:36:02;4.55;;;1.55;;
10801;SDS011;5453;50.852;7.102;2023-04-25T09:38:47;4.57;;;1.80;;
10801;SDS011;5453;50.852;7.102;2023-04-25T09:41:24;4.80;;;1.50;;
10801;SDS011;5453;50.852;7.102;2023-04-25T09:44:00;5.53;;;1.52;;
10801;SDS011;5453;50.852;7.102;2023-04-25T09:46:37;10.45;;;2.05;;
10801;SDS011;5453;50.852;7.102;2023-04-25T09:49:20;4.32;;;1.65;;
10801;SDS011;5453;50.852;7.102;2023-04-25T09:52:13;3.25;;;1.70;;
10801;SDS011;5453;50.852;7.102;2023-04-25T09:54:57;4.90;;;2.42;;
10801;SDS011;5453;50.852;7.102;2023-04-25T09:57:36;7.50;;;1.83;;
10801;SDS011;5453;50.852;7.102;2023-04-25T10:00:11;5.00;;;2.00;;
10801;SDS011;5453;50.852;7.102;2023-04-25T10:02:48;7.55;;;2.20;;
10801;SDS011;5453;50.852;7.102;2023-04-25T10:05:50;4.30;;;1.73;;
10801;SDS011;5453;50.852;7.102;2023-04-25T10:08:24;5.82;;;2.17;;
10801;SDS011;5453;50.852;7.102;2023-04-25T10:11:02;5.80;;;1.65;;
10801;SDS011;5453;50.852;7.102;2023-04-25T10:13:36;7.25;;;1.95;;
10801;SDS011;5453;50.852;7.102;2023-04-25T10:16:08;5.60;;;1.63;;
10801;SDS011;5453;50.852;7.102;2023-04-25T10:18:41;2.45;;;2.05;;
10801;SDS011;5453;50.852;7.102;2023-04-25T10:21:13;3.53;;;2.05;;
10801;SDS011;5453;50.852;7.102;2023-04-25T10:23:46;2.65;;;1.63;;
10801;SDS011;5453;50.852;7.102;2023-04-25T10:26:19;4.28;;;1.77;;
10801;SDS011;5453;50.852;7.102;2023-04-25T10:28:55;4.22;;;1.50;;
10801;SDS011;5453;50.852;7.102;2023-04-25T10:31:29;3.58;;;1.77;;
10801;SDS011;5453;50.852;7.102;2023-04-25T10:34:03;5.97;;;1.60;;
10801;SDS011;5453;50.852;7.102;2023-04-25T10:36:36;5.70;;;1.73;;
10801;SDS011;5453;50.852;7.102;2023-04-25T10:39:09;3.97;;;1.55;;
10801;SDS011;5453;50.852;7.102;2023-04-25T10:41:45;5.78;;;1.73;;
10801;SDS011;5453;50.852;7.102;2023-04-25T10:44:19;4.07;;;1.17;;
10801;SDS011;5453;50.852;7.102;2023-04-25T10:46:51;7.60;;;1.83;;
10801;SDS011;5453;50.852;7.102;2023-04-25T10:49:34;3.08;;;1.48;;
10801;SDS011;5453;50.852;7.102;2023-04-25T10:52:11;9.02;;;1.95;;
10801;SDS011;5453;50.852;7.102;2023-04-25T10:54:48;8.27;;;2.08;;
10801;SDS011;5453;50.852;7.102;2023-04-25T10:57:27;5.72;;;2.10;;
10801;SDS011;5453;50.852;7.102;2023-04-25T11:00:01;4.43;;;1.42;;
10801;SDS011;5453;50.852;7.102;2023-04-25T11:02:43;4.47;;;1.75;;
10801;SDS011;5453;50.852;7.102;2023-04-25T11:05:20;5.63;;;1.50;;
10801;SDS011;5453;50.852;7.102;2023-04-25T11:07:55;1.60;;;1.42;;
10801;SDS011;5453;50.852;7.102;2023-04-25T11:10:27;7.55;;;2.05;;
10801;SDS011;5453;50.852;7.102;2023-04-25T11:13:02;5.80;;;1.75;;
10801;SDS011;5453;50.852;7.102;2023-04-25T11:15:34;5.07;;;1.73;;
10801;SDS011;5453;50.852;7.102;2023-04-25T11:18:06;3.72;;;1.33;;
10801;SDS011;5453;50.852;7.102;2023-04-25T11:20:39;5.03;;;1.20;;
10801;SDS011;5453;50.852;7.102;2023-04-25T11:23:15;6.15;;;1.50;;
10801;SDS011;5453;50.852;7.102;2023-04-25T11:25:47;3.35;;;1.42;;
10801;SDS011;5453;50.852;7.102;2023-04-25T11:28:21;4.05;;;1.38;;
10801;SDS011;5453;50.852;7.102;2023-04-25T11:30:53;5.80;;;1.88;;
10801;SDS011;5453;50.852;7.102;2023-04-25T11:33:26;5.82;;;1.70;;
10801;SDS011;5453;50.852;7.102;2023-04-25T11:35:59;5.90;;;1.50;;
10801;SDS011;5453;50.852;7.102;2023-04-25T11:38:31;6.65;;;1.60;;
10801;SDS011;5453;50.852;7.102;2023-04-25T11:41:04;4.20;;;1.45;;
10801;SDS011;5453;50.852;7.102;2023-04-25T11:43:36;3.35;;;1.35;;
10801;SDS011;5453;50.852;7.102;2023-04-25T11:46:08;3.92;;;1.30;;
10801;SDS011;5453;50.852;7.102;2023-04-25T11:48:41;2.65;;;1.05;;
10801;SDS011;5453;50.852;7.102;2023-04-25T11:51:16;3.92;;;1.10;;
10801;SDS011;5453;50.852;7.102;2023-04-25T11:53:48;4.22;;;1.50;;
10801;SDS011;5453;50.852;7.102;2023-04-25T11:56:20;3.17;;;1.50;;
10801;SDS011;5453;50.852;7.102;2023-04-25T11:58:59;2.53;;;1.10;;
10801;SDS011;5453;50.852;7.102;2023-04-25T12:01:34;2.53;;;1.13;;
10801;SDS011;5453;50.852;7.102;2023-04-25T12:04:11;4.40;;;1.30;;
10801;SDS011;5453;50.852;7.102;2023-04-25T12:06:46;3.50;;;1.27;;
10801;SDS011;5453;50.852;7.102;2023-04-25T12:09:21;2.17;;;1.20;;
10801;SDS011;5453;50.852;7.102;2023-04-25T12:12:00;3.90;;;1.40;;
10801;SDS011;5453;50.852;7.102;2023-04-25T12:14:34;4.68;;;2.47;;
10801;SDS011;5453;50.852;7.102;2023-04-25T12:17:07;3.28;;;1.40;;
10801;SDS011;5453;50.852;7.102;2023-04-25T12:19:40;4.43;;;1.25;;
10801;SDS011;5453;50.852;7.102;2023-04-25T12:22:22;2.83;;;1.60;;
10801;SDS011;5453;50.852;7.102;2023-04-25T12:24:55;4.82;;;1.58;;
10801;SDS011;5453;50.852;7.102;2023-04-25T12:27:29;6.68;;;1.30;;
10801;SDS011;5453;50.852;7.102;2023-04-25T12:30:04;2.50;;;1.20;;
10801;SDS011;5453;50.852;7.102;2023-04-25T12:32:38;2.78;;;1.60;;
10801;SDS011;5453;50.852;7.102;2023-04-25T12:35:10;5.63;;;1.50;;
10801;SDS011;5453;50.852;7.102;2023-04-25T12:37:43;2.60;;;1.33;;
10801;SDS011;5453;50.852;7.102;2023-04-25T12:40:16;3.75;;;1.52;;
10801;SDS011;5453;50.852;7.102;2023-04-25T12:42:48;3.85;;;1.20;;
10801;SDS011;5453;50.852;7.102;2023-04-25T12:45:20;2.35;;;1.23;;
10801;SDS011;5453;50.852;7.102;2023-04-25T12:47:52;4.53;;;1.83;;
10801;SDS011;5453;50.852;7.102;2023-04-25T12:50:24;2.65;;;1.20;;
10801;SDS011;5453;50.852;7.102;2023-04-25T12:52:58;4.53;;;1.20;;
10801;SDS011;5453;50.852;7.102;2023-04-25T12:55:30;3.53;;;1.30;;
10801;SDS011;5453;50.852;7.102;2023-04-25T12:58:02;2.75;;;1.05;;
10801;SDS011;5453;50.852;7.102;2023-04-25T13:00:34;3.90;;;1.27;;
10801;SDS011;5453;50.852;7.102;2023-04-25T13:03:06;2.72;;;1.00;;
10801;SDS011;5453;50.852;7.102;2023-04-25T13:05:39;1.45;;;1.17;;
10801;SDS011;5453;50.852;7.102;2023-04-25T13:08:12;1.98;;;1.50;;
10801;SDS011;5453;50.852;7.102;2023-04-25T13:10:45;3.55;;;1.10;;
10801;SDS011;5453;50.852;7.102;2023-04-25T13:13:18;4.78;;;1.30;;
10801;SDS011;5453;50.852;7.102;2023-04-25T13:15:50;4.30;;;1.48;;
10801;SDS011;5453;50.852;7.102;2023-04-25T13:18:22;3.65;;;1.30;;
10801;SDS011;5453;50.852;7.102;2023-04-25T13:20:56;3.97;;;1.67;;
10801;SDS011;5453;50.852;7.102;2023-04-25T13:23:31;2.42;;;1.20;;
10801;SDS011;5453;50.852;7.102;2023-04-25T13:26:03;2.35;;;1.45;;
10801;SDS011;5453;50.852;7.102;2023-04-25T13:28:36;3.78;;;1.20;;
10801;SDS011;5453;50.852;7.102;2023-04-25T13:31:08;4.28;;;1.55;;
10801;SDS011;5453;50.852;7.102;2023-04-25T13:33:40;4.82;;;1.30;;
10801;SDS011;5453;50.852;7.102;2023-04-25T13:36:12;3.47;;;1.40;;
10801;SDS011;5453;50.852;7.102;2023-04-25T13:38:46;3.13;;;1.08;;
10801;SDS011;5453;50.852;7.102;2023-04-25T13:41:19;3.13;;;1.30;;
10801;SDS011;5453;50.852;7.102;2023-04-25T13:43:51;4.68;;;1.73;;
10801;SDS011;5453;50.852;7.102;2023-04-25T13:46:23;4.25;;;1.20;;
10801;SDS011;5453;50.852;7.102;2023-04-25T13:48:55;5.00;;;1.40;;
10801;SDS011;5453;50.852;7.102;2023-04-25T13:51:27;4.50;;;1.27;;
10801;SDS011;5453;50.852;7.102;2023-04-25T13:54:01;3.10;;;1.40;;
10801;SDS011;5453;50.852;7.102;2023-04-25T13:56:34;3.72;;;1.30;;
10801;SDS011;5453;50.852;7.102;2023-04-25T13:59:06;3.35;;;1.33;;
10801;SDS011;5453;50.852;7.102;2023-04-25T14:01:38;2.58;;;1.30;;
10801;SDS011;5453;50.852;7.102;2023-04-25T14:04:11;2.92;;;1.48;;
10801;SDS011;5453;50.852;7.102;2023-04-25T14:06:43;2.08;;;1.17;;
10801;SDS011;5453;50.852;7.102;2023-04-25T14:09:17;1.75;;;1.02;;
10801;SDS011;5453;50.852;7.102;2023-04-25T14:14:23;2.70;;;1.38;;
10801;SDS011;5453;50.852;7.102;2023-04-25T14:16:55;3.53;;;1.40;;
10801;SDS011;5453;50.852;7.102;2023-04-25T14:19:28;2.03;;;1.17;;
10801;SDS011;5453;50.852;7.102;2023-04-25T14:22:00;1.10;;;1.00;;
10801;SDS011;5453;50.852;7.102;2023-04-25T14:24:34;3.05;;;1.27;;
10801;SDS011;5453;50.852;7.102;2023-04-25T14:27:06;2.78;;;1.10;;
10801;SDS011;5453;50.852;7.102;2023-04-25T14:29:38;2.47;;;1.20;;
10801;SDS011;5453;50.852;7.102;2023-04-25T14:32:10;2.95;;;1.40;;
10801;SDS011;5453;50.852;7.102;2023-04-25T14:34:42;1.58;;;1.00;;
10801;SDS011;5453;50.852;7.102;2023-04-25T14:37:15;2.22;;;0.73;;
10801;SDS011;5453;50.852;7.102;2023-04-25T14:39:49;2.72;;;0.95;;
10801;SDS011;5453;50.852;7.102;2023-04-25T14:42:21;2.72;;;1.00;;
10801;SDS011;5453;50.852;7.102;2023-04-25T14:44:53;1.58;;;1.00;;
10801;SDS011;5453;50.852;7.102;2023-04-25T14:47:25;2.33;;;1.20;;
10801;SDS011;5453;50.852;7.102;2023-04-25T14:49:57;2.55;;;1.42;;
10801;SDS011;5453;50.852;7.102;2023-04-25T14:52:30;2.17;;;1.10;;
10801;SDS011;5453;50.852;7.102;2023-04-25T14:55:03;2.35;;;1.23;;
10801;SDS011;5453;50.852;7.102;2023-04-25T14:57:37;1.67;;;1.40;;
10801;SDS011;5453;50.852;7.102;2023-04-25T15:00:10;5.00;;;1.75;;
10801;SDS011;5453;50.852;7.102;2023-04-25T15:02:46;4.30;;;1.70;;
10801;SDS011;5453;50.852;7.102;2023-04-25T15:05:18;2.63;;;1.40;;
10801;SDS011;5453;50.852;7.102;2023-04-25T15:07:50;4.00;;;1.63;;
10801;SDS011;5453;50.852;7.102;2023-04-25T15:10:24;2.65;;;1.30;;
10801;SDS011;5453;50.852;7.102;2023-04-25T15:12:56;2.88;;;1.38;;
10801;SDS011;5453;50.852;7.102;2023-04-25T15:15:28;3.10;;;1.10;;
10801;SDS011;5453;50.852;7.102;2023-04-25T15:18:00;0.88;;;0.82;;
10801;SDS011;5453;50.852;7.102;2023-04-25T15:20:33;2.92;;;1.00;;
10801;SDS011;5453;50.852;7.102;2023-04-25T15:23:05;2.50;;;0.80;;
10801;SDS011;5453;50.852;7.102;2023-04-25T15:25:39;1.67;;;0.98;;
10801;SDS011;5453;50.852;7.102;2023-04-25T15:28:11;2.08;;;0.80;;
10801;SDS011;5453;50.852;7.102;2023-04-25T15:30:45;2.42;;;0.98;;
10801;SDS011;5453;50.852;7.102;2023-04-25T15:33:18;2.00;;;0.90;;
10801;SDS011;5453;50.852;7.102;2023-04-25T15:35:50;2.20;;;1.00;;
10801;SDS011;5453;50.852;7.102;2023-04-25T15:38:22;1.20;;;1.10;;
10801;SDS011;5453;50.852;7.102;2023-04-25T15:40:56;2.30;;;1.05;;
10801;SDS011;5453;50.852;7.102;2023-04-25T15:43:29;1.65;;;1.10;;
10801;SDS011;5453;50.852;7.102;2023-04-25T15:46:01;3.83;;;1.00;;
10801;SDS011;5453;50.852;7.102;2023-04-25T15:48:33;1.10;;;0.70;;
10801;SDS011;5453;50.852;7.102;2023-04-25T15:51:05;2.38;;;0.90;;
10801;SDS011;5453;50.852;7.102;2023-04-25T15:53:37;3.70;;;1.20;;
10801;SDS011;5453;50.852;7.102;2023-04-25T15:56:11;2.08;;;1.40;;
10801;SDS011;5453;50.852;7.102;2023-04-25T15:58:43;3.38;;;1.00;;